M I D A S
Marine Information and Data Acquisition System
Tripno 1186 of the Zeeleeuw from 2006-11-21 07:35:17 to 2006-11-21 15:36:30
Back to CruiseResearch ActivitiesStationsMapUnderway DataData graphs

EquipmentUnitsComment
TimeDGPSUTC
LatitudeDGPSDM.mWGS84
LongitudeDGPSDM.mWGS84
HeadingGyrodeg 
SOGDGPSknotsSpeed over ground
COGDGPSdegCourse over ground
DepthEcho soundermeters200 kHz
Missing or incorrect values are displayed as -999
Navigation data collected by the RV Zeeleeuw from 2006-11-21 07:21:41 to 2006-11-21 15:39:16
Time Latitude Longitude Heading SOG COG Depth
2006-11-21 07:22:45 51°13.598 2°56.095 126.1 0.1 304 -999
2006-11-21 07:23:45 51°13.599 2°56.095 125.3 -999 269 -999
2006-11-21 07:24:46 51°13.598 2°56.094 126 -999 158 -999
2006-11-21 07:25:45 51°13.598 2°56.094 126.7 -999 278 -999
2006-11-21 07:26:46 51°13.599 2°56.095 126.8 -999 349 -999
2006-11-21 07:27:43 51°13.599 2°56.096 126.6 -999 191 6.3
2006-11-21 07:28:41 51°13.599 2°56.097 127 0.1 56 6.1
2006-11-21 07:29:42 51°13.599 2°56.097 127 -999 182 6.1
2006-11-21 07:30:41 51°13.598 2°56.095 127 0.1 80 6.1
2006-11-21 07:31:42 51°13.599 2°56.096 127.1 -999 55 6.2
2006-11-21 07:32:41 51°13.599 2°56.096 127.7 -999 131 6.6
2006-11-21 07:33:42 51°13.599 2°56.096 123.9 0.1 165 6.3
2006-11-21 07:34:41 51°13.597 2°56.095 114.1 -999 229 6.5
2006-11-21 07:35:42 51°13.611 2°56.05 115.4 3.1 294 -999
2006-11-21 07:36:43 51°13.635 2°55.958 115.4 3.9 292 -999
2006-11-21 07:37:43 51°13.668 2°55.857 121 4.7 300 -999
2006-11-21 07:38:41 51°13.692 2°55.768 103.9 3.3 288 11.3
2006-11-21 07:39:41 51°13.699 2°55.728 76.5 0.3 314 12.7
2006-11-21 07:40:41 51°13.714 2°55.734 26 1.6 1 12
2006-11-21 07:41:41 51°13.75 2°55.711 333.1 3.3 326 9.2
2006-11-21 07:42:41 51°13.815 2°55.648 335.6 5.5 332 9.9
2006-11-21 07:43:41 51°13.907 2°55.575 339.4 6.6 334 9.9
2006-11-21 07:44:42 51°14.015 2°55.503 342.7 7.4 339 9.6
2006-11-21 07:45:42 51°14.138 2°55.416 339.3 8.9 334 10.1
2006-11-21 07:46:41 51°14.261 2°55.272 319.2 9.6 314 9.8
2006-11-21 07:47:42 51°14.366 2°55.069 315.3 10.1 312 9.9
2006-11-21 07:48:41 51°14.502 2°54.904 337.2 10.5 329 9
2006-11-21 07:49:42 51°14.67 2°54.746 341.6 12.3 333 8.7
2006-11-21 07:50:41 51°14.854 2°54.6 338.3 12.9 329 8.9
2006-11-21 07:51:41 51°15.04 2°54.443 342.1 12.4 334 7.7
2006-11-21 07:52:41 51°15.207 2°54.237 330.7 12.9 321 8.4
2006-11-21 07:53:41 51°15.379 2°54.035 333.4 12.8 323 9.2
2006-11-21 07:54:41 51°15.557 2°53.841 336.8 12.7 327 9.6
2006-11-21 07:55:42 51°15.738 2°53.655 337.3 12.7 329 10.3
2006-11-21 07:56:41 51°15.912 2°53.479 337 12.5 328 10.9
2006-11-21 07:57:41 51°16.092 2°53.313 340.1 12.4 330 11.2
2006-11-21 07:58:42 51°16.277 2°53.155 341.5 12.4 334 11.4
2006-11-21 07:59:41 51°16.456 2°53.01 342 12.2 334 11.3
2006-11-21 08:00:42 51°16.643 2°52.862 341.2 12.4 333 11.2
2006-11-21 08:01:41 51°16.824 2°52.734 346.3 12.1 338 9.2
2006-11-21 08:02:42 51°17.016 2°52.613 347.6 12.2 339 9.5
2006-11-21 08:03:41 51°17.207 2°52.549 359.4 12 350 9.4
2006-11-21 08:04:42 51°17.41 2°52.508 1.1 12 352 9.3
2006-11-21 08:05:41 51°17.604 2°52.476 4.6 11.7 358 10
2006-11-21 08:06:42 51°17.804 2°52.461 5.8 11.8 -999 9.9
2006-11-21 08:07:42 51°17.998 2°52.505 18.8 11.9 11 10.4
2006-11-21 08:08:42 51°18.175 2°52.635 43.7 12.1 40 10.5
2006-11-21 08:09:41 51°18.296 2°52.873 54.9 12 48 10.7
2006-11-21 08:10:41 51°18.426 2°53.112 52.5 12.1 45 10.8
2006-11-21 08:11:41 51°18.566 2°53.338 47.9 12.2 41 11
2006-11-21 08:12:42 51°18.717 2°53.565 50 12.2 41 11.1
2006-11-21 08:13:41 51°18.858 2°53.788 49.2 12.2 53 11.2
2006-11-21 08:14:42 51°19.011 2°53.999 51.9 12.2 47 11.5
2006-11-21 08:15:42 51°19.155 2°54.218 50.5 11.9 43 11.7
2006-11-21 08:16:41 51°19.302 2°54.424 48.5 12 41 11.9
2006-11-21 08:17:41 51°19.449 2°54.638 47.7 12.1 43 11.9
2006-11-21 08:18:41 51°19.594 2°54.852 48.6 12.1 38 11.9
2006-11-21 08:19:41 51°19.745 2°55.062 44 12.3 40 12.3
2006-11-21 08:20:42 51°19.899 2°55.271 45.4 12.2 31 12.3
2006-11-21 08:21:42 51°20.039 2°55.503 56 12.3 50 12.3
2006-11-21 08:22:41 51°20.164 2°55.749 55.1 12 50 12.3
2006-11-21 08:23:41 51°20.291 2°55.998 52.4 11.8 47 12.4
2006-11-21 08:24:41 51°20.376 2°56.293 77.7 11.9 77 12.6
2006-11-21 08:25:41 51°20.416 2°56.615 78.4 12.6 76 12.3
2006-11-21 08:26:41 51°20.472 2°56.934 76.9 12.6 75 11.9
2006-11-21 08:27:41 51°20.479 2°57.265 93.7 12.8 92 11.9
2006-11-21 08:28:41 51°20.483 2°57.608 87.4 13.5 85 11.5
2006-11-21 08:29:41 51°20.484 2°57.951 90 12.6 89 11.4
2006-11-21 08:30:42 51°20.525 2°58.283 77.8 12.1 77 11.3
2006-11-21 08:31:41 51°20.611 2°58.577 67.7 12.3 64 11.3
2006-11-21 08:32:41 51°20.772 2°58.782 38.4 12.8 24 11.2
2006-11-21 08:33:41 51°20.956 2°58.943 33.3 12.5 23 11.4
2006-11-21 08:34:41 51°21.169 2°58.953 4.4 13.1 356 11.6
2006-11-21 08:35:42 51°21.386 2°58.881 352.5 13.3 343 11.9
2006-11-21 08:36:42 51°21.576 2°58.777 349.1 10.6 340 12.4
2006-11-21 08:37:42 51°21.718 2°58.676 338.5 8.8 333 12.8
2006-11-21 08:38:42 51°21.855 2°58.601 352.5 9.5 343 13.9
2006-11-21 08:39:42 51°21.994 2°58.529 324.6 8.7 311 13.9
2006-11-21 08:40:42 51°21.954 2°58.348 212.6 8.2 204 13.9
2006-11-21 08:41:42 51°21.845 2°58.293 212.8 5.7 209 14
2006-11-21 08:42:42 51°21.788 2°58.23 227.7 3 211 13.9
2006-11-21 08:43:41 51°21.771 2°58.225 212 0.6 132 4.5
2006-11-21 08:44:41 51°21.764 2°58.229 187.4 0.6 151 13.9
2006-11-21 08:45:42 51°21.755 2°58.231 169.7 0.6 157 13.8
2006-11-21 08:46:42 51°21.746 2°58.233 161.7 0.7 190 13.8
2006-11-21 08:47:42 51°21.735 2°58.237 163.3 0.7 178 14
2006-11-21 08:48:42 51°21.724 2°58.24 168.5 0.7 166 13.6
2006-11-21 08:49:42 51°21.712 2°58.244 172.4 0.7 165 13.8
2006-11-21 08:50:43 51°21.701 2°58.248 172.7 0.6 170 13.6
2006-11-21 08:51:41 51°21.692 2°58.253 172.2 0.6 172 13.6
2006-11-21 08:52:42 51°21.681 2°58.26 173.7 0.8 159 13.6
2006-11-21 08:53:42 51°21.667 2°58.266 179 1.5 178 13.7
2006-11-21 08:54:42 51°21.613 2°58.226 228.3 5.2 221 13.7
2006-11-21 08:55:42 51°21.601 2°58.111 314.5 4.3 311 13.9
2006-11-21 08:56:42 51°21.686 2°58.128 30.6 6.5 26 13.9
2006-11-21 08:57:42 51°21.775 2°58.137 359.1 3.7 353 14.1
2006-11-21 08:58:43 51°21.791 2°58.13 1.4 0.3 297 14.3
2006-11-21 08:59:42 51°21.79 2°58.127 347.3 0.3 201 14.4
2006-11-21 09:00:42 51°21.783 2°58.13 346 0.5 174 14.1
2006-11-21 09:01:41 51°21.774 2°58.136 348.5 0.8 150 14.4
2006-11-21 09:02:42 51°21.763 2°58.144 359 0.7 136 14.2
2006-11-21 09:03:42 51°21.749 2°58.15 4.7 0.9 165 14.1
2006-11-21 09:04:42 51°21.735 2°58.158 9 1 174 13.6
2006-11-21 09:05:43 51°21.72 2°58.164 11.4 1 160 14.2
2006-11-21 09:06:41 51°21.707 2°58.17 10.3 0.8 153 13.9
2006-11-21 09:07:42 51°21.694 2°58.176 9.6 1 142 13.6
2006-11-21 09:08:41 51°21.682 2°58.183 8.4 0.7 164 13.9
2006-11-21 09:09:42 51°21.673 2°58.191 6.1 0.7 138 14.1
2006-11-21 09:10:42 51°21.664 2°58.202 8.1 0.9 142 13.6
2006-11-21 09:11:42 51°21.654 2°58.21 10.2 0.5 158 13.9
2006-11-21 09:12:42 51°21.676 2°58.209 352.1 0.8 327 13.8
2006-11-21 09:13:42 51°21.667 2°58.215 357.1 0.7 157 14
2006-11-21 09:14:42 51°21.655 2°58.225 12.9 0.8 158 13.6
2006-11-21 09:15:42 51°21.646 2°58.233 16.3 0.6 160 13.7
2006-11-21 09:16:42 51°21.64 2°58.242 8.7 0.7 120 13.6
2006-11-21 09:17:43 51°21.681 2°58.226 342.1 4.8 332 13.8
2006-11-21 09:18:43 51°21.743 2°58.131 317.2 3.6 310 14.3
2006-11-21 09:19:42 51°21.75 2°58.115 344.6 0.1 151 13.7
2006-11-21 09:20:43 51°21.745 2°58.119 3.2 0.3 137 14.3
2006-11-21 09:21:42 51°21.739 2°58.128 10.1 0.5 153 14.2
2006-11-21 09:22:42 51°21.732 2°58.139 8.3 0.5 151 14
2006-11-21 09:23:43 51°21.724 2°58.145 3.6 0.6 157 14.1
2006-11-21 09:24:42 51°21.713 2°58.154 3.9 0.9 142 13.9
2006-11-21 09:25:43 51°21.7 2°58.162 9.1 0.9 154 13.8
2006-11-21 09:26:43 51°21.687 2°58.172 18.4 1 152 13.7
2006-11-21 09:27:41 51°21.674 2°58.183 20.8 1.2 141 14.1
2006-11-21 09:28:42 51°21.661 2°58.191 14.5 0.6 163 13.9
2006-11-21 09:29:43 51°21.648 2°58.201 12.4 0.9 139 14
2006-11-21 09:30:43 51°21.636 2°58.213 9.9 1 132 13.8
2006-11-21 09:31:41 51°21.624 2°58.224 11.4 0.8 157 14
2006-11-21 09:32:42 51°21.612 2°58.239 12.7 0.6 137 14
2006-11-21 09:33:42 51°21.628 2°58.25 1.9 1.7 3 13.6
2006-11-21 09:34:42 51°21.669 2°58.23 335.1 3.3 326 14.2
2006-11-21 09:35:42 51°21.706 2°58.172 321.4 1.5 309 13.9
2006-11-21 09:36:42 51°21.709 2°58.171 334.9 0.5 100 14.2
2006-11-21 09:37:42 51°21.704 2°58.18 359.1 0.4 156 14.3
2006-11-21 09:38:42 51°21.698 2°58.194 6.8 0.9 115 14.1
2006-11-21 09:39:42 51°21.69 2°58.205 8.6 0.7 146 14.2
2006-11-21 09:40:43 51°21.681 2°58.217 9.4 0.8 136 14.2
2006-11-21 09:41:43 51°21.671 2°58.23 11 0.8 137 14.2
2006-11-21 09:42:41 51°21.663 2°58.24 5.8 0.5 168 14
2006-11-21 09:43:43 51°21.655 2°58.253 1.1 0.7 122 14
2006-11-21 09:44:42 51°21.646 2°58.265 1.3 0.8 134 14.1
2006-11-21 09:45:42 51°21.637 2°58.278 4 0.7 151 13.8
2006-11-21 09:46:42 51°21.627 2°58.292 7.2 0.8 133 13.9
2006-11-21 09:47:43 51°21.616 2°58.306 8.9 0.9 136 14.2
2006-11-21 09:48:42 51°21.636 2°58.312 352 4.1 345 14.2
2006-11-21 09:49:42 51°21.686 2°58.218 296.2 4.5 290 14.3
2006-11-21 09:50:41 51°21.694 2°58.154 294 0.2 216 14.5
2006-11-21 09:51:42 51°21.688 2°58.163 323.5 0.7 133 4.6
2006-11-21 09:52:42 51°21.678 2°58.179 350.9 1 132 14.4
2006-11-21 09:53:42 51°21.664 2°58.196 14.5 1.2 141 14.3
2006-11-21 09:54:43 51°21.652 2°58.211 20.1 1 136 14.2
2006-11-21 09:55:42 51°21.646 2°58.226 15.6 0.8 56 14.4
2006-11-21 09:56:42 51°21.697 2°58.2 326.4 5.9 317 14.4
2006-11-21 09:57:43 51°21.681 2°58.017 245 8.9 239 14.9
2006-11-21 09:58:42 51°21.609 2°57.761 253.9 11.4 248 14.6
2006-11-21 09:59:42 51°21.544 2°57.502 256.6 8.9 251 15
2006-11-21 10:00:41 51°21.522 2°57.37 284.5 1.6 264 15.3
2006-11-21 10:01:42 51°21.513 2°57.376 333.3 0.8 141 5.2
2006-11-21 10:02:42 51°21.5 2°57.392 350.5 0.9 136 15.3
2006-11-21 10:03:42 51°21.486 2°57.408 5.8 0.9 146 14.8
2006-11-21 10:04:42 51°21.473 2°57.423 17.4 1 150 15.1
2006-11-21 10:05:42 51°21.458 2°57.438 26.6 0.9 148 15.1
2006-11-21 10:06:41 51°21.446 2°57.455 28.9 1 137 15.1
2006-11-21 10:07:42 51°21.437 2°57.476 20.1 1.1 118 14.7
2006-11-21 10:08:42 51°21.429 2°57.494 13.5 0.8 124 14.5
2006-11-21 10:09:41 51°21.419 2°57.515 9.9 1.1 125 15.3
2006-11-21 10:10:42 51°21.41 2°57.538 7.5 1 128 14.7
2006-11-21 10:11:42 51°21.401 2°57.561 6 1.1 124 14.7
2006-11-21 10:12:42 51°21.392 2°57.585 5.9 1 120 14.6
2006-11-21 10:13:42 51°21.383 2°57.611 5.1 0.9 117 14.4
2006-11-21 10:14:42 51°21.414 2°57.617 342.5 4.2 340 14.7
2006-11-21 10:15:43 51°21.468 2°57.517 299 5.2 289 15.1
2006-11-21 10:16:42 51°21.465 2°57.384 272.5 2.7 259 15.2
2006-11-21 10:17:42 51°21.459 2°57.385 313.6 0.7 121 5.3
2006-11-21 10:18:42 51°21.451 2°57.407 338.8 1 135 15.4
2006-11-21 10:19:42 51°21.441 2°57.433 352 1.1 126 14.9
2006-11-21 10:20:41 51°21.432 2°57.46 7 1 117 15.4
2006-11-21 10:21:42 51°21.423 2°57.487 15.7 1 121 15.1
2006-11-21 10:22:42 51°21.413 2°57.515 25.1 1.1 116 15.1
2006-11-21 10:23:41 51°21.405 2°57.537 23.3 0.9 124 14.9
2006-11-21 10:24:42 51°21.398 2°57.565 18.7 1 98 15.1
2006-11-21 10:25:42 51°21.443 2°57.558 327.7 4.4 327 15.1
2006-11-21 10:26:42 51°21.508 2°57.463 315.4 5.4 313 15.3
2006-11-21 10:27:42 51°21.551 2°57.392 314 2.3 315 16.1
2006-11-21 10:28:42 51°21.561 2°57.393 323.9 0.9 82 16.2
2006-11-21 10:29:42 51°21.562 2°57.418 345.4 1.5 82 15.7
2006-11-21 10:30:42 51°21.557 2°57.443 4.1 1 112 16.1
2006-11-21 10:31:42 51°21.55 2°57.471 15.8 1.2 113 15.9
2006-11-21 10:32:42 51°21.541 2°57.498 18 1 118 15.9
2006-11-21 10:33:43 51°21.533 2°57.527 18.8 1.5 119 15.4
2006-11-21 10:34:42 51°21.525 2°57.555 19.1 1.2 115 15.9
2006-11-21 10:35:42 51°21.519 2°57.586 14 1.4 113 15.8
2006-11-21 10:36:42 51°21.542 2°57.609 348.1 2.9 356 15.8
2006-11-21 10:37:42 51°21.587 2°57.559 298.2 3.5 300 15.9
2006-11-21 10:38:42 51°21.582 2°57.464 261.4 4.2 251 16
2006-11-21 10:39:42 51°21.559 2°57.397 255.7 2.3 243 16.4
2006-11-21 10:40:42 51°21.548 2°57.401 271.8 1.5 105 16.1
2006-11-21 10:41:42 51°21.541 2°57.439 256.7 0.7 126 16.1
2006-11-21 10:42:42 51°21.532 2°57.445 270.7 0.7 128 16.1
2006-11-21 10:43:42 51°21.527 2°57.473 273.9 1.4 102 15.9
2006-11-21 10:44:43 51°21.524 2°57.522 273.4 2 97 15.7
2006-11-21 10:45:42 51°21.521 2°57.578 267.2 2.3 95 16
2006-11-21 10:46:42 51°21.52 2°57.641 258.3 2.5 86 15.5
2006-11-21 10:47:42 51°21.508 2°57.661 242.8 2 211 15.8
2006-11-21 10:48:42 51°21.489 2°57.594 277.8 3.4 272 15.9
2006-11-21 10:49:43 51°21.49 2°57.496 271.1 4.2 268 16.3
2006-11-21 10:50:41 51°21.484 2°57.394 269.5 2.9 263 16.3
2006-11-21 10:51:43 51°21.479 2°57.369 266.6 0.5 242 16.2
2006-11-21 10:52:42 51°21.473 2°57.373 262.6 0.6 129 16.2
2006-11-21 10:53:42 51°21.468 2°57.393 261.9 0.9 111 16.2
2006-11-21 10:54:42 51°21.463 2°57.414 266.5 0.7 106 16.1
2006-11-21 10:55:41 51°21.461 2°57.437 274.5 1.1 86 16.1
2006-11-21 10:56:41 51°21.459 2°57.455 269.3 0.6 104 16.1
2006-11-21 10:57:42 51°21.457 2°57.466 275.8 0.3 125 16.2
2006-11-21 10:58:41 51°21.458 2°57.477 275.4 0.4 70 16
2006-11-21 10:59:41 51°21.463 2°57.488 266.9 0.5 84 16.3
2006-11-21 11:00:42 51°21.462 2°57.499 264.8 0.3 71 16.1
2006-11-21 11:01:42 51°21.459 2°57.502 263.9 0.5 122 16
2006-11-21 11:02:41 51°21.46 2°57.513 284 0.4 18 16.3
2006-11-21 11:03:41 51°21.469 2°57.496 271.6 1.3 275 16.4
2006-11-21 11:04:42 51°21.469 2°57.442 271.9 2.4 273 16.4
2006-11-21 11:05:42 51°21.466 2°57.379 259.5 2.5 250 16.4
2006-11-21 11:06:42 51°21.443 2°57.327 245.3 2.4 227 16.6
2006-11-21 11:07:42 51°21.423 2°57.279 261.2 1.8 247 16.8
2006-11-21 11:08:41 51°21.419 2°57.251 268.3 0.1 256 16.8
2006-11-21 11:09:42 51°21.423 2°57.266 276.5 1.1 75 16.6
2006-11-21 11:10:41 51°21.431 2°57.311 300.4 2.3 76 16.6
2006-11-21 11:11:42 51°21.433 2°57.372 330.9 2.2 93 16.4
2006-11-21 11:12:42 51°21.431 2°57.425 356 2.2 83 16
2006-11-21 11:13:41 51°21.449 2°57.471 347.3 2.1 35 16.6
2006-11-21 11:14:42 51°21.48 2°57.495 317.3 1.8 27 16.3
2006-11-21 11:15:41 51°21.502 2°57.501 284.7 0.9 358 16.7
2006-11-21 11:16:42 51°21.506 2°57.501 251.7 0.1 206 16.6
2006-11-21 11:17:42 51°21.498 2°57.489 259.1 0.9 240 16.7
2006-11-21 11:18:41 51°21.493 2°57.467 263.2 1.1 262 16.6
2006-11-21 11:19:42 51°21.488 2°57.443 255.5 0.9 231 16.4
2006-11-21 11:20:41 51°21.478 2°57.428 257 0.8 236 16.7
2006-11-21 11:21:42 51°21.476 2°57.414 257.6 0.8 254 16.6
2006-11-21 11:22:42 51°21.472 2°57.39 258.8 1.1 261 16.7
2006-11-21 11:23:41 51°21.466 2°57.37 257.4 0.8 246 16.9
2006-11-21 11:24:41 51°21.461 2°57.348 260.5 0.6 257 16.8
2006-11-21 11:25:41 51°21.462 2°57.332 268.6 0.8 290 17.1
2006-11-21 11:26:41 51°21.471 2°57.312 276.5 1.1 314 16.9
2006-11-21 11:27:41 51°21.482 2°57.289 268.4 0.8 294 16.8
2006-11-21 11:28:42 51°21.481 2°57.269 257.9 0.8 250 16.9
2006-11-21 11:29:42 51°21.476 2°57.251 260.5 0.9 253 17.2
2006-11-21 11:30:42 51°21.48 2°57.227 273.1 0.9 300 17
2006-11-21 11:31:42 51°21.492 2°57.2 277.6 1.6 300 17.1
2006-11-21 11:32:41 51°21.498 2°57.186 260.6 0.3 289 17.2
2006-11-21 11:33:42 51°21.494 2°57.177 257.6 0.6 246 17.6
2006-11-21 11:34:42 51°21.499 2°57.154 271.9 1.3 299 17.3
2006-11-21 11:35:41 51°21.509 2°57.128 275.6 1.2 309 17.5
2006-11-21 11:36:42 51°21.516 2°57.111 268.5 0.7 306 17.7
2006-11-21 11:37:41 51°21.52 2°57.096 263.3 0.4 286 17.5
2006-11-21 11:38:42 51°21.519 2°57.077 260.3 0.9 259 17.6
2006-11-21 11:39:42 51°21.518 2°57.069 258.1 0.2 245 17.8
2006-11-21 11:40:41 51°21.516 2°57.055 259.2 0.8 260 17.7
2006-11-21 11:41:42 51°21.515 2°57.039 259.8 0.7 266 17.9
2006-11-21 11:42:42 51°21.507 2°56.983 255.1 4.5 249 17.9
2006-11-21 11:43:41 51°21.435 2°56.816 239.8 9.9 235 17.8
2006-11-21 11:44:42 51°21.332 2°56.57 242.3 11.2 239 17.8
2006-11-21 11:45:41 51°21.235 2°56.327 241.3 11.1 237 17.9
2006-11-21 11:46:42 51°21.136 2°56.073 243.1 11.1 238 17.9
2006-11-21 11:47:41 51°21.042 2°55.826 243.7 11.1 239 18.1
2006-11-21 11:48:42 51°20.944 2°55.567 243.8 11.1 239 18.1
2006-11-21 11:49:42 51°20.846 2°55.321 242.5 10.9 237 18
2006-11-21 11:50:41 51°20.746 2°55.08 240.9 10.8 237 18.2
2006-11-21 11:51:42 51°20.644 2°54.833 241.5 11.2 236 18.6
2006-11-21 11:52:42 51°20.541 2°54.593 240.9 10.9 236 18.4
2006-11-21 11:53:42 51°20.44 2°54.348 242.3 10.9 237 18.6
2006-11-21 11:54:42 51°20.331 2°54.113 237 11.1 232 18.6
2006-11-21 11:55:42 51°20.218 2°53.888 237.5 11.1 232 18.8
2006-11-21 11:56:43 51°20.105 2°53.654 237.1 10.9 231 18.5
2006-11-21 11:57:42 51°19.996 2°53.436 235.9 10.7 231 18
2006-11-21 11:58:42 51°19.887 2°53.209 238.2 10.9 233 18.3
2006-11-21 11:59:42 51°19.811 2°53.048 242.9 4 239 18.7
2006-11-21 12:00:42 51°19.814 2°53.001 292.7 1.5 1 18.7
2006-11-21 12:01:42 51°19.836 2°53.042 342.5 2.2 62 18.1
2006-11-21 12:02:41 51°19.852 2°53.098 9.9 2.1 65 18.6
2006-11-21 12:03:42 51°19.87 2°53.159 19.6 2.5 68 18.5
2006-11-21 12:04:42 51°19.886 2°53.218 20.1 2.4 68 18.5
2006-11-21 12:05:42 51°19.903 2°53.277 16.4 2.6 65 18.5
2006-11-21 12:06:42 51°19.92 2°53.336 13.8 2.6 68 18.5
2006-11-21 12:07:42 51°19.935 2°53.395 12.1 2.3 69 18.5
2006-11-21 12:08:41 51°19.95 2°53.452 12.3 2.8 52 18.4
2006-11-21 12:09:41 51°20.008 2°53.465 308.4 3.5 339 18.6
2006-11-21 12:10:42 51°20.014 2°53.403 245.9 3.5 239 18.6
2006-11-21 12:11:41 51°19.928 2°53.297 224.8 7.6 215 18.3
2006-11-21 12:12:42 51°19.878 2°53.167 260.6 3.7 265 18.6
2006-11-21 12:13:42 51°19.882 2°53.117 267.2 1.1 305 19.1
2006-11-21 12:14:42 51°19.896 2°53.121 274.2 1.3 42 18.8
2006-11-21 12:15:41 51°19.913 2°53.149 271.2 1.8 56 18.9
2006-11-21 12:16:42 51°19.929 2°53.19 263.7 1.7 59 19
2006-11-21 12:17:42 51°19.94 2°53.227 253.7 0.9 59 19
2006-11-21 12:18:42 51°19.948 2°53.241 261.1 0.8 43 18.8
2006-11-21 12:19:42 51°19.965 2°53.252 279.2 1.2 12 19.1
2006-11-21 12:20:42 51°19.986 2°53.26 282.1 1.3 11 18.9
2006-11-21 12:21:42 51°19.993 2°53.259 232.6 1.6 198 19.1
2006-11-21 12:22:41 51°19.923 2°53.242 217.7 5.3 204 19
2006-11-21 12:23:42 51°19.827 2°53.182 206.2 6.8 192 18.4
2006-11-21 12:24:42 51°19.772 2°53.132 245.5 2.3 239 18.3
2006-11-21 12:25:42 51°19.776 2°53.127 269.2 1 39 18.5
2006-11-21 12:26:41 51°19.793 2°53.148 271.8 1.3 43 18.3
2006-11-21 12:27:42 51°19.802 2°53.171 242.1 0.8 81 18.3
2006-11-21 12:28:42 51°19.806 2°53.188 253.3 0.4 57 18.2
2006-11-21 12:29:42 51°19.811 2°53.205 250 0.8 67 18.4
2006-11-21 12:30:42 51°19.818 2°53.23 251.2 0.9 59 18.2
2006-11-21 12:31:42 51°19.826 2°53.248 250.8 0.7 62 18.2
2006-11-21 12:32:42 51°19.832 2°53.271 241 1.2 79 17.9
2006-11-21 12:33:42 51°19.838 2°53.305 243.3 1.2 71 18.3
2006-11-21 12:34:42 51°19.84 2°53.319 248.8 0.2 110 18.3
2006-11-21 12:35:41 51°19.841 2°53.323 250.8 0.3 67 18
2006-11-21 12:36:41 51°19.846 2°53.342 246.9 1 74 18.1
2006-11-21 12:37:42 51°19.851 2°53.366 251.7 0.9 55 18.1
2006-11-21 12:38:42 51°19.855 2°53.389 244.8 1 79 18.2
2006-11-21 12:39:42 51°19.859 2°53.424 238.2 1.3 80 18.1
2006-11-21 12:40:42 51°19.857 2°53.426 257.4 1.1 268 17.9
2006-11-21 12:41:42 51°19.867 2°53.367 266.5 3.1 276 18.3
2006-11-21 12:42:42 51°19.854 2°53.268 256.8 4.8 260 18.6
2006-11-21 12:43:42 51°19.835 2°53.153 241.4 3.4 242 18.5
2006-11-21 12:44:42 51°19.842 2°53.126 270.9 0.9 345 18.4
2006-11-21 12:45:42 51°19.854 2°53.138 249.3 1 49 18.5
2006-11-21 12:46:42 51°19.86 2°53.168 240.6 0.8 83 18.8
2006-11-21 12:47:41 51°19.863 2°53.186 250.9 0.7 62 18.3
2006-11-21 12:48:43 51°19.866 2°53.199 246.7 0.6 70 18.5
2006-11-21 12:49:42 51°19.868 2°53.222 249 0.7 77 18.6
2006-11-21 12:50:42 51°19.872 2°53.235 249.6 0.4 47 18.7
2006-11-21 12:51:41 51°19.871 2°53.24 246.3 0.1 144 18.4
2006-11-21 12:52:42 51°19.875 2°53.245 253.3 0.5 27 18.5
2006-11-21 12:53:42 51°19.88 2°53.26 245 0.9 71 18.4
2006-11-21 12:54:42 51°19.882 2°53.287 237.1 1 87 18.3
2006-11-21 12:55:42 51°19.883 2°53.313 242.2 0.9 90 18.6
2006-11-21 12:56:42 51°19.887 2°53.329 254 0.4 38 18.4
2006-11-21 12:57:42 51°19.892 2°53.343 246 1.2 78 17.6
2006-11-21 12:58:42 51°19.859 2°53.332 214.5 4.4 204 18
2006-11-21 12:59:43 51°19.804 2°53.239 233.8 5.2 227 17.8
2006-11-21 13:00:42 51°19.767 2°53.134 246.7 3.9 244 17.9
2006-11-21 13:01:41 51°19.752 2°53.081 250.3 0.7 252 18.2
2006-11-21 13:02:42 51°19.752 2°53.082 248.7 0.6 83 18.2
2006-11-21 13:03:42 51°19.757 2°53.104 245.8 0.8 78 18.1
2006-11-21 13:04:42 51°19.763 2°53.127 254.5 0.8 72 18.2
2006-11-21 13:05:41 51°19.769 2°53.15 248.6 0.7 53 18.1
2006-11-21 13:06:41 51°19.772 2°53.158 250.1 0.2 32 18.3
2006-11-21 13:07:42 51°19.774 2°53.166 248.2 0.5 62 18.1
2006-11-21 13:08:42 51°19.775 2°53.181 239 0.6 81 18
2006-11-21 13:09:41 51°19.776 2°53.205 238.9 0.8 74 18.3
2006-11-21 13:10:43 51°19.782 2°53.217 261.1 0.5 318 17.9
2006-11-21 13:11:43 51°19.767 2°53.191 221.7 2.2 206 17.8
2006-11-21 13:12:43 51°19.732 2°53.145 238.6 2.4 227 17.9
2006-11-21 13:13:42 51°19.718 2°53.122 243.3 0.4 219 18
2006-11-21 13:14:42 51°19.718 2°53.138 235.2 0.8 76 18
2006-11-21 13:15:42 51°19.719 2°53.165 240.6 0.9 84 17.9
2006-11-21 13:16:42 51°19.723 2°53.186 246 0.9 64 17.5
2006-11-21 13:17:41 51°19.724 2°53.201 236 0.6 111 17.7
2006-11-21 13:18:41 51°19.722 2°53.213 250.4 0.5 60 17.5
2006-11-21 13:19:42 51°19.733 2°53.196 287.9 2.8 316 17.9
2006-11-21 13:20:42 51°19.812 2°53.213 24.5 7 32 18
2006-11-21 13:21:42 51°19.917 2°53.347 28 8.4 26 18.2
2006-11-21 13:22:42 51°20.02 2°53.491 73.3 7.5 66 18.4
2006-11-21 13:23:42 51°20.005 2°53.638 145.2 3.9 116 17.9
2006-11-21 13:24:42 51°19.99 2°53.693 191.8 1.9 144 17.8
2006-11-21 13:25:42 51°19.961 2°53.648 252.1 2.5 254 17.9
2006-11-21 13:26:42 51°19.952 2°53.61 249.3 1.5 244 17.9
2006-11-21 13:27:42 51°19.949 2°53.594 250.8 0.2 67 17.8
2006-11-21 13:28:41 51°19.951 2°53.603 246.5 0.4 68 17.9
2006-11-21 13:29:42 51°19.946 2°53.594 246.2 0.3 151 18
2006-11-21 13:30:42 51°19.947 2°53.611 244.5 0.9 84 17.6
2006-11-21 13:31:42 51°19.95 2°53.637 244 0.9 75 17.8
2006-11-21 13:32:41 51°19.955 2°53.653 261.4 0.6 56 17.7
2006-11-21 13:33:42 51°19.963 2°53.667 260.7 0.8 48 17.8
2006-11-21 13:34:42 51°19.968 2°53.684 243.1 0.7 72 17.8
2006-11-21 13:35:41 51°19.968 2°53.704 229.6 0.8 103 17.8
2006-11-21 13:36:41 51°19.965 2°53.719 234.1 0.5 114 17.4
2006-11-21 13:37:42 51°19.965 2°53.741 237.3 1 98 17.5
2006-11-21 13:38:42 51°19.97 2°53.765 246 1.1 70 17.5
2006-11-21 13:39:42 51°19.969 2°53.756 249.6 2.7 248 17.7
2006-11-21 13:40:42 51°19.925 2°53.66 234.1 6.6 225 17.6
2006-11-21 13:41:43 51°19.819 2°53.524 225.7 8.2 216 16.5
2006-11-21 13:42:42 51°19.743 2°53.356 237.4 8.3 229 17.3
2006-11-21 13:43:41 51°19.665 2°53.186 253.1 8.3 250 17.5
2006-11-21 13:44:42 51°19.586 2°53.004 228.6 8.5 220 17.3
2006-11-21 13:45:42 51°19.522 2°52.844 256 4.6 260 17.6
2006-11-21 13:46:42 51°19.53 2°52.803 268.6 0.9 28 17.3
2006-11-21 13:47:41 51°19.541 2°52.815 255.5 0.7 43 17.4
2006-11-21 13:48:42 51°19.547 2°52.834 236.1 1 70 17.5
2006-11-21 13:49:42 51°19.551 2°52.857 234.3 0.8 71 17.5
2006-11-21 13:50:42 51°19.555 2°52.87 255.1 0.5 25 17.4
2006-11-21 13:51:41 51°19.565 2°52.879 260.7 0.7 21 17.6
2006-11-21 13:52:42 51°19.573 2°52.896 244.1 0.6 74 17.5
2006-11-21 13:53:42 51°19.574 2°52.913 233.7 0.5 89 17.4
2006-11-21 13:54:42 51°19.577 2°52.925 250.4 0.6 50 17.5
2006-11-21 13:55:43 51°19.568 2°52.909 232.2 1.8 209 17.3
2006-11-21 13:56:43 51°19.496 2°52.886 216.1 4.6 208 17.1
2006-11-21 13:57:42 51°19.477 2°52.839 248.7 0.8 267 17.2
2006-11-21 13:58:42 51°19.485 2°52.848 255.1 0.9 48 17.1
2006-11-21 13:59:42 51°19.494 2°52.873 251.6 1.1 61 17.1
2006-11-21 14:00:43 51°19.499 2°52.893 239.2 0.4 71 16.7
2006-11-21 14:01:42 51°19.5 2°52.897 245.6 0.1 312 17
2006-11-21 14:02:42 51°19.504 2°52.903 245.1 0.7 55 17
2006-11-21 14:03:43 51°19.514 2°52.932 237.6 1.5 61 17.2
2006-11-21 14:04:42 51°19.527 2°52.969 220.7 1.5 63 16.8
2006-11-21 14:05:43 51°19.509 2°52.976 214.4 2.4 199 16.8
2006-11-21 14:06:42 51°19.476 2°52.914 236.9 3.3 234 16.7
2006-11-21 14:07:43 51°19.451 2°52.862 239.2 1.2 233 16.8
2006-11-21 14:08:43 51°19.448 2°52.859 236.1 0.4 96 16.9
2006-11-21 14:09:42 51°19.452 2°52.878 229.6 0.8 72 16.7
2006-11-21 14:10:42 51°19.452 2°52.895 230 0.7 91 16.5
2006-11-21 14:11:42 51°19.452 2°52.908 236.6 0.6 81 16.7
2006-11-21 14:12:42 51°19.458 2°52.93 232.3 1.1 66 16.5
2006-11-21 14:13:42 51°19.465 2°52.956 227.9 0.7 72 16.6
2006-11-21 14:14:43 51°19.465 2°52.968 236.9 0.4 76 16.5
2006-11-21 14:15:43 51°19.466 2°52.974 235.8 0.1 191 16.7
2006-11-21 14:16:42 51°19.465 2°52.978 236.6 0.1 169 16.9
2006-11-21 14:17:42 51°19.448 2°52.937 241.1 2.8 240 16.1
2006-11-21 14:18:42 51°19.439 2°52.852 261.9 2.7 272 16.7
2006-11-21 14:19:42 51°19.446 2°52.82 263.4 0.8 4 16.5
2006-11-21 14:20:42 51°19.465 2°52.816 289.5 1.9 332 16.8
2006-11-21 14:21:42 51°19.494 2°52.822 326.6 1.7 47 17.1
2006-11-21 14:22:42 51°19.511 2°52.86 350.6 1.8 56 16.8
2006-11-21 14:23:42 51°19.527 2°52.899 5 1.7 58 17
2006-11-21 14:24:43 51°19.542 2°52.94 10.8 1.7 59 16.7
2006-11-21 14:25:42 51°19.555 2°52.976 12.4 1.5 54 16.6
2006-11-21 14:26:42 51°19.568 2°53.015 11.3 1.6 65 16.5
2006-11-21 14:27:42 51°19.601 2°53.042 340.1 3.2 -999 16.8
2006-11-21 14:28:42 51°19.644 2°53.008 280.2 2.1 303 17.1
2006-11-21 14:29:42 51°19.603 2°52.943 216.9 5.9 217 16.9
2006-11-21 14:30:42 51°19.541 2°52.835 231.5 3.7 231 16.8
2006-11-21 14:31:42 51°19.522 2°52.793 242.3 0.5 247 16.9
2006-11-21 14:32:42 51°19.527 2°52.795 254.2 0.3 346 17
2006-11-21 14:33:42 51°19.536 2°52.797 260.1 0.6 18 16.9
2006-11-21 14:34:42 51°19.546 2°52.808 249 0.8 38 17
2006-11-21 14:35:43 51°19.551 2°52.825 223.5 0.7 80 16.6
2006-11-21 14:36:42 51°19.549 2°52.841 222.5 0.5 115 16.9
2006-11-21 14:37:42 51°19.535 2°52.83 239.3 2.1 240 17
2006-11-21 14:38:42 51°19.547 2°52.742 285.4 4 299 17
2006-11-21 14:39:42 51°19.575 2°52.704 306.1 1.5 13 17.1
2006-11-21 14:40:42 51°19.591 2°52.735 332.3 1.6 37 -999
2006-11-21 14:41:42 51°19.61 2°52.767 333.5 1.9 83 16.9
2006-11-21 14:42:42 51°19.613 2°52.805 3.4 1.2 81 17.2
2006-11-21 14:43:42 51°19.621 2°52.836 17.1 1.1 68 17.1
2006-11-21 14:44:42 51°19.63 2°52.868 22.2 1.4 60 17.1
2006-11-21 14:45:42 51°19.643 2°52.901 17.2 1.5 55 16.9
2006-11-21 14:46:42 51°19.657 2°52.934 9.4 1.5 55 16.9
2006-11-21 14:47:43 51°19.686 2°52.972 15.5 4.5 23 16.9
2006-11-21 14:48:42 51°19.727 2°53.108 108.2 6.4 102 17.1
2006-11-21 14:49:42 51°19.652 2°53.162 206.7 5 206 16.2
2006-11-21 14:50:42 51°19.581 2°53.059 226.3 6.7 222 16.2
2006-11-21 14:51:42 51°19.517 2°52.911 243.2 6.8 241 16.5
2006-11-21 14:52:42 51°19.512 2°52.805 280.6 2.6 294 16.5
2006-11-21 14:53:42 51°19.532 2°52.753 285.2 2.6 302 16.8
2006-11-21 14:54:43 51°19.558 2°52.718 299.4 1.4 357 16.8
2006-11-21 14:55:42 51°19.571 2°52.749 324.7 1.5 73 16.8
2006-11-21 14:56:43 51°19.578 2°52.786 343 1.4 77 16.9
2006-11-21 14:57:42 51°19.582 2°52.817 359.7 1.2 75 16.7
2006-11-21 14:58:41 51°19.59 2°52.845 14.4 1.5 49 16.8
2006-11-21 14:59:42 51°19.646 2°52.852 333.1 4.8 340 16.7
2006-11-21 15:00:43 51°19.666 2°52.743 241.7 4.7 235 17.1
2006-11-21 15:01:41 51°19.57 2°52.725 191.5 8.7 184 16.7
2006-11-21 15:02:42 51°19.387 2°52.677 194.7 12.3 188 15.9
2006-11-21 15:03:43 51°19.174 2°52.634 192.6 12.8 187 15.2
2006-11-21 15:04:43 51°18.963 2°52.621 182.8 12.7 176 14.1
2006-11-21 15:05:43 51°18.759 2°52.734 162.6 13.1 162 13.4
2006-11-21 15:06:42 51°18.552 2°52.795 185.1 12.9 186 12.8
2006-11-21 15:07:41 51°18.351 2°52.723 196.8 12.7 193 12.7
2006-11-21 15:08:42 51°18.139 2°52.68 192.1 12.9 189 12.3
2006-11-21 15:09:42 51°17.929 2°52.64 191.9 13 187 12.1
2006-11-21 15:10:42 51°17.718 2°52.608 192 12.8 186 11.8
2006-11-21 15:11:41 51°17.508 2°52.58 190.7 12.9 186 11.7
2006-11-21 15:12:43 51°17.288 2°52.566 184.2 12.8 179 11.4
2006-11-21 15:13:42 51°17.077 2°52.598 176.5 13.1 173 10.9
2006-11-21 15:14:41 51°16.872 2°52.674 172 12.9 167 11.1
2006-11-21 15:15:41 51°16.662 2°52.772 169.6 13.3 164 12.4
2006-11-21 15:16:42 51°16.449 2°52.885 168.3 13.1 165 13.3
2006-11-21 15:17:41 51°16.24 2°52.988 167.9 13.6 162 13.3
2006-11-21 15:18:42 51°16.023 2°53.086 169.9 13.2 165 13.3
2006-11-21 15:19:42 51°15.811 2°53.192 166 13.4 160 12.7
2006-11-21 15:20:43 51°15.599 2°53.314 164.7 13.4 161 12.2
2006-11-21 15:21:42 51°15.395 2°53.435 163.6 13.4 158 11.3
2006-11-21 15:22:43 51°15.204 2°53.625 143.8 13.6 137 11
2006-11-21 15:23:42 51°15.045 2°53.866 142.2 13.6 137 10.3
2006-11-21 15:24:42 51°14.884 2°54.117 140.1 13.5 137 10.4
2006-11-21 15:25:41 51°14.722 2°54.359 137.9 13.8 130 10.9
2006-11-21 15:26:41 51°14.58 2°54.637 130.7 13.4 127 11
2006-11-21 15:27:41 51°14.435 2°54.912 135.5 13.5 132 11.8
2006-11-21 15:28:43 51°14.299 2°55.19 128 11.3 126 11.2
2006-11-21 15:29:43 51°14.19 2°55.357 150.3 7.6 147 11.9
2006-11-21 15:30:41 51°14.095 2°55.429 157.9 6.1 155 11.3
2006-11-21 15:31:41 51°14.007 2°55.496 158.3 5.8 155 11
2006-11-21 15:32:41 51°13.92 2°55.563 158.6 5.8 155 11.5
2006-11-21 15:33:43 51°13.827 2°55.631 155.8 6.3 153 11.4
2006-11-21 15:34:43 51°13.744 2°55.736 139.4 6.2 136 10.8
2006-11-21 15:35:42 51°13.681 2°55.854 128.8 5.8 126 9.8
2006-11-21 15:36:42 51°13.632 2°55.969 123.9 4.4 121 10.2
2006-11-21 15:37:45 51°13.608 2°56.059 113.2 2.9 109 10
2006-11-21 15:38:46 51°13.6 2°56.09 129.7 0.2 266 -999